sensor_id;sensor_type;location;lat;lon;timestamp;temperature;humidity
9107;DHT22;4589;48.690;8.952;2024-02-21T00:00:40;4.00;99.90
9107;DHT22;4589;48.690;8.952;2024-02-21T00:03:07;3.90;99.90
9107;DHT22;4589;48.690;8.952;2024-02-21T00:05:33;3.90;99.90
9107;DHT22;4589;48.690;8.952;2024-02-21T00:07:59;4.00;99.90
9107;DHT22;4589;48.690;8.952;2024-02-21T00:10:25;4.00;99.90
9107;DHT22;4589;48.690;8.952;2024-02-21T00:12:51;4.00;99.90
9107;DHT22;4589;48.690;8.952;2024-02-21T00:15:16;4.00;99.90
9107;DHT22;4589;48.690;8.952;2024-02-21T00:17:43;4.00;99.90
9107;DHT22;4589;48.690;8.952;2024-02-21T00:20:10;4.00;99.90
9107;DHT22;4589;48.690;8.952;2024-02-21T00:22:35;4.00;99.90
9107;DHT22;4589;48.690;8.952;2024-02-21T00:25:01;4.00;99.90
9107;DHT22;4589;48.690;8.952;2024-02-21T00:27:27;3.90;99.90
9107;DHT22;4589;48.690;8.952;2024-02-21T00:29:53;4.00;99.90
9107;DHT22;4589;48.690;8.952;2024-02-21T00:32:18;4.00;99.90
9107;DHT22;4589;48.690;8.952;2024-02-21T00:34:44;4.10;99.90
9107;DHT22;4589;48.690;8.952;2024-02-21T00:37:09;4.10;99.90
9107;DHT22;4589;48.690;8.952;2024-02-21T00:39:35;4.10;99.90
9107;DHT22;4589;48.690;8.952;2024-02-21T00:42:01;4.20;99.90
9107;DHT22;4589;48.690;8.952;2024-02-21T00:44:26;4.20;99.90
9107;DHT22;4589;48.690;8.952;2024-02-21T00:46:52;4.20;99.90
9107;DHT22;4589;48.690;8.952;2024-02-21T00:49:18;4.10;99.90
9107;DHT22;4589;48.690;8.952;2024-02-21T00:51:43;4.20;99.90
9107;DHT22;4589;48.690;8.952;2024-02-21T00:54:09;4.20;99.90
9107;DHT22;4589;48.690;8.952;2024-02-21T00:56:34;4.20;99.90
9107;DHT22;4589;48.690;8.952;2024-02-21T00:59:00;4.30;99.90
9107;DHT22;4589;48.690;8.952;2024-02-21T01:01:26;4.30;99.90
9107;DHT22;4589;48.690;8.952;2024-02-21T01:03:51;4.30;99.90
9107;DHT22;4589;48.690;8.952;2024-02-21T01:06:20;4.30;99.90
9107;DHT22;4589;48.690;8.952;2024-02-21T01:08:49;4.30;99.90
9107;DHT22;4589;48.690;8.952;2024-02-21T01:11:15;4.20;99.90
9107;DHT22;4589;48.690;8.952;2024-02-21T01:13:41;4.20;99.90
9107;DHT22;4589;48.690;8.952;2024-02-21T01:16:07;4.20;99.90
9107;DHT22;4589;48.690;8.952;2024-02-21T01:18:39;4.10;99.90
9107;DHT22;4589;48.690;8.952;2024-02-21T01:21:05;4.10;99.90
9107;DHT22;4589;48.690;8.952;2024-02-21T01:23:36;4.10;99.90
9107;DHT22;4589;48.690;8.952;2024-02-21T01:26:03;4.10;99.90
9107;DHT22;4589;48.690;8.952;2024-02-21T01:28:29;4.10;99.90
9107;DHT22;4589;48.690;8.952;2024-02-21T01:30:56;4.00;99.90
9107;DHT22;4589;48.690;8.952;2024-02-21T01:35:47;4.10;99.90
9107;DHT22;4589;48.690;8.952;2024-02-21T01:38:14;4.00;99.90
9107;DHT22;4589;48.690;8.952;2024-02-21T01:40:39;4.00;99.90
9107;DHT22;4589;48.690;8.952;2024-02-21T01:43:18;4.00;99.90
9107;DHT22;4589;48.690;8.952;2024-02-21T01:45:48;4.00;99.90
9107;DHT22;4589;48.690;8.952;2024-02-21T01:48:15;4.00;99.90
9107;DHT22;4589;48.690;8.952;2024-02-21T01:50:41;4.00;99.90
9107;DHT22;4589;48.690;8.952;2024-02-21T01:53:07;4.00;99.90
9107;DHT22;4589;48.690;8.952;2024-02-21T01:55:33;3.90;99.90
9107;DHT22;4589;48.690;8.952;2024-02-21T01:57:58;3.90;99.90
9107;DHT22;4589;48.690;8.952;2024-02-21T02:02:50;3.90;99.90
9107;DHT22;4589;48.690;8.952;2024-02-21T02:05:16;4.00;99.90
9107;DHT22;4589;48.690;8.952;2024-02-21T02:07:44;4.00;99.90
9107;DHT22;4589;48.690;8.952;2024-02-21T02:10:09;4.00;99.90
9107;DHT22;4589;48.690;8.952;2024-02-21T02:12:35;4.10;99.90
9107;DHT22;4589;48.690;8.952;2024-02-21T02:15:02;4.10;99.90
9107;DHT22;4589;48.690;8.952;2024-02-21T02:17:31;4.10;99.90
9107;DHT22;4589;48.690;8.952;2024-02-21T02:19:57;4.10;99.90
9107;DHT22;4589;48.690;8.952;2024-02-21T02:22:28;4.20;99.90
9107;DHT22;4589;48.690;8.952;2024-02-21T02:24:54;4.20;99.90
9107;DHT22;4589;48.690;8.952;2024-02-21T02:27:20;4.20;99.90
9107;DHT22;4589;48.690;8.952;2024-02-21T02:29:48;4.20;99.90
9107;DHT22;4589;48.690;8.952;2024-02-21T02:32:14;4.20;99.90
9107;DHT22;4589;48.690;8.952;2024-02-21T02:34:39;4.20;99.90
9107;DHT22;4589;48.690;8.952;2024-02-21T02:37:05;4.20;99.90
9107;DHT22;4589;48.690;8.952;2024-02-21T02:39:30;4.20;99.90
9107;DHT22;4589;48.690;8.952;2024-02-21T02:41:56;4.20;99.90
9107;DHT22;4589;48.690;8.952;2024-02-21T02:44:21;4.30;99.90
9107;DHT22;4589;48.690;8.952;2024-02-21T02:46:47;4.20;99.90
9107;DHT22;4589;48.690;8.952;2024-02-21T02:49:12;4.30;99.90
9107;DHT22;4589;48.690;8.952;2024-02-21T02:51:44;4.20;99.90
9107;DHT22;4589;48.690;8.952;2024-02-21T02:54:10;4.10;99.90
9107;DHT22;4589;48.690;8.952;2024-02-21T02:56:36;4.20;99.90
9107;DHT22;4589;48.690;8.952;2024-02-21T02:59:01;4.20;99.90
9107;DHT22;4589;48.690;8.952;2024-02-21T03:01:27;4.20;99.90
9107;DHT22;4589;48.690;8.952;2024-02-21T03:06:19;4.20;99.90
9107;DHT22;4589;48.690;8.952;2024-02-21T03:08:44;4.20;99.90
9107;DHT22;4589;48.690;8.952;2024-02-21T03:11:10;4.10;99.90
9107;DHT22;4589;48.690;8.952;2024-02-21T03:16:02;4.10;99.90
9107;DHT22;4589;48.690;8.952;2024-02-21T03:18:28;4.10;99.90
9107;DHT22;4589;48.690;8.952;2024-02-21T03:20:53;4.00;99.90
9107;DHT22;4589;48.690;8.952;2024-02-21T03:23:19;4.00;99.90
9107;DHT22;4589;48.690;8.952;2024-02-21T03:25:45;3.90;99.90
9107;DHT22;4589;48.690;8.952;2024-02-21T03:28:10;3.90;99.90
9107;DHT22;4589;48.690;8.952;2024-02-21T03:30:36;3.90;99.90
9107;DHT22;4589;48.690;8.952;2024-02-21T03:33:02;3.90;99.90
9107;DHT22;4589;48.690;8.952;2024-02-21T03:35:28;3.90;99.90
9107;DHT22;4589;48.690;8.952;2024-02-21T03:37:54;3.90;99.90
9107;DHT22;4589;48.690;8.952;2024-02-21T03:40:19;3.80;99.90
9107;DHT22;4589;48.690;8.952;2024-02-21T03:42:45;3.80;99.90
9107;DHT22;4589;48.690;8.952;2024-02-21T03:45:10;3.80;99.90
9107;DHT22;4589;48.690;8.952;2024-02-21T03:50:02;3.80;99.90
9107;DHT22;4589;48.690;8.952;2024-02-21T03:52:28;3.80;99.90
9107;DHT22;4589;48.690;8.952;2024-02-21T03:54:53;3.80;99.90
9107;DHT22;4589;48.690;8.952;2024-02-21T03:57:20;3.80;99.90
9107;DHT22;4589;48.690;8.952;2024-02-21T04:02:12;3.80;99.90
9107;DHT22;4589;48.690;8.952;2024-02-21T04:04:37;3.70;99.90
9107;DHT22;4589;48.690;8.952;2024-02-21T04:09:33;3.70;99.90
9107;DHT22;4589;48.690;8.952;2024-02-21T04:12:00;3.70;99.90
9107;DHT22;4589;48.690;8.952;2024-02-21T04:14:26;3.70;99.90
9107;DHT22;4589;48.690;8.952;2024-02-21T04:16:52;3.70;99.90
9107;DHT22;4589;48.690;8.952;2024-02-21T04:19:17;3.70;99.90
9107;DHT22;4589;48.690;8.952;2024-02-21T04:24:10;3.70;99.90
9107;DHT22;4589;48.690;8.952;2024-02-21T04:26:35;3.70;99.90
9107;DHT22;4589;48.690;8.952;2024-02-21T04:31:27;3.70;99.90
9107;DHT22;4589;48.690;8.952;2024-02-21T04:33:52;3.70;99.90
9107;DHT22;4589;48.690;8.952;2024-02-21T04:36:18;3.80;99.90
9107;DHT22;4589;48.690;8.952;2024-02-21T04:41:09;3.70;99.90
9107;DHT22;4589;48.690;8.952;2024-02-21T04:43:35;3.70;99.90
9107;DHT22;4589;48.690;8.952;2024-02-21T04:46:01;3.70;99.90
9107;DHT22;4589;48.690;8.952;2024-02-21T04:50:52;3.50;99.90
9107;DHT22;4589;48.690;8.952;2024-02-21T04:55:44;3.40;99.90
9107;DHT22;4589;48.690;8.952;2024-02-21T04:58:09;3.30;99.90
9107;DHT22;4589;48.690;8.952;2024-02-21T05:00:35;3.30;99.90
9107;DHT22;4589;48.690;8.952;2024-02-21T05:03:01;3.20;99.90
9107;DHT22;4589;48.690;8.952;2024-02-21T05:05:26;3.30;99.90
9107;DHT22;4589;48.690;8.952;2024-02-21T05:07:52;3.20;99.90
9107;DHT22;4589;48.690;8.952;2024-02-21T05:10:17;3.20;99.90
9107;DHT22;4589;48.690;8.952;2024-02-21T05:12:44;3.10;99.90
9107;DHT22;4589;48.690;8.952;2024-02-21T05:15:10;3.10;99.90
9107;DHT22;4589;48.690;8.952;2024-02-21T05:17:36;3.00;99.90
9107;DHT22;4589;48.690;8.952;2024-02-21T05:27:19;2.90;99.90
9107;DHT22;4589;48.690;8.952;2024-02-21T05:29:45;2.90;99.90
9107;DHT22;4589;48.690;8.952;2024-02-21T05:32:10;2.90;99.90
9107;DHT22;4589;48.690;8.952;2024-02-21T05:41:54;2.70;99.90
9107;DHT22;4589;48.690;8.952;2024-02-21T05:44:20;2.70;99.90
9107;DHT22;4589;48.690;8.952;2024-02-21T05:46:47;2.70;99.90
9107;DHT22;4589;48.690;8.952;2024-02-21T05:49:13;2.70;99.90
9107;DHT22;4589;48.690;8.952;2024-02-21T05:54:04;2.60;99.90
9107;DHT22;4589;48.690;8.952;2024-02-21T05:56:30;2.60;99.90
9107;DHT22;4589;48.690;8.952;2024-02-21T05:58:55;2.50;99.90
9107;DHT22;4589;48.690;8.952;2024-02-21T06:01:21;2.30;99.90
9107;DHT22;4589;48.690;8.952;2024-02-21T06:08:42;2.40;99.90
9107;DHT22;4589;48.690;8.952;2024-02-21T06:11:08;2.40;99.90
9107;DHT22;4589;48.690;8.952;2024-02-21T06:13:33;2.30;99.90
9107;DHT22;4589;48.690;8.952;2024-02-21T06:16:03;2.20;99.90
9107;DHT22;4589;48.690;8.952;2024-02-21T06:18:29;2.10;99.90
9107;DHT22;4589;48.690;8.952;2024-02-21T06:28:13;1.90;99.90
9107;DHT22;4589;48.690;8.952;2024-02-21T06:30:40;1.80;99.90
9107;DHT22;4589;48.690;8.952;2024-02-21T06:33:05;2.10;99.90
9107;DHT22;4589;48.690;8.952;2024-02-21T06:35:33;2.20;99.90
9107;DHT22;4589;48.690;8.952;2024-02-21T06:37:58;2.20;99.90
9107;DHT22;4589;48.690;8.952;2024-02-21T06:40:24;2.20;99.90
9107;DHT22;4589;48.690;8.952;2024-02-21T06:42:50;2.30;99.90
9107;DHT22;4589;48.690;8.952;2024-02-21T06:45:16;2.40;99.90
9107;DHT22;4589;48.690;8.952;2024-02-21T06:47:42;2.50;99.90
9107;DHT22;4589;48.690;8.952;2024-02-21T06:50:08;2.60;99.90
9107;DHT22;4589;48.690;8.952;2024-02-21T06:52:36;2.60;99.90
9107;DHT22;4589;48.690;8.952;2024-02-21T06:55:01;2.70;99.90
9107;DHT22;4589;48.690;8.952;2024-02-21T06:57:28;2.70;99.90
9107;DHT22;4589;48.690;8.952;2024-02-21T06:59:54;2.90;99.90
9107;DHT22;4589;48.690;8.952;2024-02-21T07:04:46;3.00;99.90
9107;DHT22;4589;48.690;8.952;2024-02-21T07:07:11;3.10;99.90
9107;DHT22;4589;48.690;8.952;2024-02-21T07:09:38;3.20;99.90
9107;DHT22;4589;48.690;8.952;2024-02-21T07:12:04;3.30;99.90
9107;DHT22;4589;48.690;8.952;2024-02-21T07:14:30;3.40;99.90
9107;DHT22;4589;48.690;8.952;2024-02-21T07:16:57;3.50;99.90
9107;DHT22;4589;48.690;8.952;2024-02-21T07:21:48;3.70;99.90
9107;DHT22;4589;48.690;8.952;2024-02-21T07:24:14;3.80;99.90
9107;DHT22;4589;48.690;8.952;2024-02-21T07:26:44;4.00;99.90
9107;DHT22;4589;48.690;8.952;2024-02-21T07:29:09;4.10;99.90
9107;DHT22;4589;48.690;8.952;2024-02-21T07:31:42;4.30;99.90
9107;DHT22;4589;48.690;8.952;2024-02-21T07:34:08;4.40;99.90
9107;DHT22;4589;48.690;8.952;2024-02-21T07:36:33;4.60;99.90
9107;DHT22;4589;48.690;8.952;2024-02-21T07:38:59;4.70;99.90
9107;DHT22;4589;48.690;8.952;2024-02-21T07:41:25;4.80;99.90
9107;DHT22;4589;48.690;8.952;2024-02-21T07:43:51;5.00;99.90
9107;DHT22;4589;48.690;8.952;2024-02-21T07:48:44;5.20;99.90
9107;DHT22;4589;48.690;8.952;2024-02-21T07:51:10;5.40;99.90
9107;DHT22;4589;48.690;8.952;2024-02-21T07:53:35;5.50;99.90
9107;DHT22;4589;48.690;8.952;2024-02-21T07:56:01;5.70;99.90
9107;DHT22;4589;48.690;8.952;2024-02-21T07:58:27;5.90;99.90
9107;DHT22;4589;48.690;8.952;2024-02-21T08:05:44;6.40;99.90
9107;DHT22;4589;48.690;8.952;2024-02-21T08:08:09;6.60;99.90
9107;DHT22;4589;48.690;8.952;2024-02-21T08:10:35;6.80;99.90
9107;DHT22;4589;48.690;8.952;2024-02-21T08:13:01;6.90;99.90
9107;DHT22;4589;48.690;8.952;2024-02-21T08:17:55;7.20;99.90
9107;DHT22;4589;48.690;8.952;2024-02-21T08:20:25;7.50;99.90
9107;DHT22;4589;48.690;8.952;2024-02-21T08:22:50;7.50;99.90
9107;DHT22;4589;48.690;8.952;2024-02-21T08:25:16;7.80;99.90
9107;DHT22;4589;48.690;8.952;2024-02-21T08:30:07;8.20;99.90
9107;DHT22;4589;48.690;8.952;2024-02-21T08:32:33;8.40;99.90
9107;DHT22;4589;48.690;8.952;2024-02-21T08:35:01;8.30;99.90
9107;DHT22;4589;48.690;8.952;2024-02-21T08:37:27;8.30;99.90
9107;DHT22;4589;48.690;8.952;2024-02-21T08:39:53;8.10;99.90
9107;DHT22;4589;48.690;8.952;2024-02-21T08:42:18;8.10;99.90
9107;DHT22;4589;48.690;8.952;2024-02-21T08:47:10;7.90;99.90
9107;DHT22;4589;48.690;8.952;2024-02-21T08:49:36;7.70;99.90
9107;DHT22;4589;48.690;8.952;2024-02-21T08:52:03;7.70;99.90
9107;DHT22;4589;48.690;8.952;2024-02-21T08:54:28;7.60;99.90
9107;DHT22;4589;48.690;8.952;2024-02-21T08:56:54;7.70;99.90
9107;DHT22;4589;48.690;8.952;2024-02-21T08:59:20;7.70;99.90
9107;DHT22;4589;48.690;8.952;2024-02-21T09:01:46;7.80;99.90
9107;DHT22;4589;48.690;8.952;2024-02-21T09:04:12;7.80;99.90
9107;DHT22;4589;48.690;8.952;2024-02-21T09:06:38;8.00;99.90
9107;DHT22;4589;48.690;8.952;2024-02-21T09:09:10;8.10;99.90
9107;DHT22;4589;48.690;8.952;2024-02-21T09:11:36;8.20;99.90
9107;DHT22;4589;48.690;8.952;2024-02-21T09:16:31;8.30;99.90
9107;DHT22;4589;48.690;8.952;2024-02-21T09:26:15;8.60;99.90
9107;DHT22;4589;48.690;8.952;2024-02-21T09:28:42;9.00;99.90
9107;DHT22;4589;48.690;8.952;2024-02-21T09:31:08;9.20;99.90
9107;DHT22;4589;48.690;8.952;2024-02-21T09:33:34;9.50;99.90
9107;DHT22;4589;48.690;8.952;2024-02-21T09:36:00;9.90;99.90
9107;DHT22;4589;48.690;8.952;2024-02-21T09:41:17;10.70;99.90
9107;DHT22;4589;48.690;8.952;2024-02-21T09:43:43;11.10;99.90
9107;DHT22;4589;48.690;8.952;2024-02-21T09:46:16;11.50;99.90
9107;DHT22;4589;48.690;8.952;2024-02-21T09:58:54;12.00;99.90
9107;DHT22;4589;48.690;8.952;2024-02-21T10:01:20;12.00;99.90
9107;DHT22;4589;48.690;8.952;2024-02-21T10:03:46;12.00;99.90
9107;DHT22;4589;48.690;8.952;2024-02-21T10:11:03;12.70;99.90
9107;DHT22;4589;48.690;8.952;2024-02-21T10:13:29;12.50;99.90
9107;DHT22;4589;48.690;8.952;2024-02-21T10:16:01;12.00;99.90
9107;DHT22;4589;48.690;8.952;2024-02-21T10:21:07;11.60;99.90
9107;DHT22;4589;48.690;8.952;2024-02-21T10:23:47;11.90;99.90
9107;DHT22;4589;48.690;8.952;2024-02-21T10:26:14;12.10;99.90
9107;DHT22;4589;48.690;8.952;2024-02-21T10:28:39;12.70;99.90
9107;DHT22;4589;48.690;8.952;2024-02-21T10:31:10;13.10;99.90
9107;DHT22;4589;48.690;8.952;2024-02-21T10:36:10;13.00;99.90
9107;DHT22;4589;48.690;8.952;2024-02-21T10:38:37;13.20;99.90
9107;DHT22;4589;48.690;8.952;2024-02-21T10:41:06;13.00;99.90
9107;DHT22;4589;48.690;8.952;2024-02-21T10:43:41;13.20;99.90
9107;DHT22;4589;48.690;8.952;2024-02-21T10:46:09;13.10;99.90
9107;DHT22;4589;48.690;8.952;2024-02-21T10:48:45;12.80;99.90
9107;DHT22;4589;48.690;8.952;2024-02-21T10:51:20;12.70;99.90
9107;DHT22;4589;48.690;8.952;2024-02-21T10:56:33;12.60;99.90
9107;DHT22;4589;48.690;8.952;2024-02-21T10:59:03;12.60;99.90
9107;DHT22;4589;48.690;8.952;2024-02-21T11:01:29;12.60;99.90
9107;DHT22;4589;48.690;8.952;2024-02-21T11:03:58;12.20;99.90
9107;DHT22;4589;48.690;8.952;2024-02-21T11:06:26;12.10;99.90
9107;DHT22;4589;48.690;8.952;2024-02-21T11:09:31;12.00;99.90
9107;DHT22;4589;48.690;8.952;2024-02-21T11:11:58;11.80;99.90
9107;DHT22;4589;48.690;8.952;2024-02-21T11:14:26;11.80;99.90
9107;DHT22;4589;48.690;8.952;2024-02-21T11:21:44;12.20;99.90
9107;DHT22;4589;48.690;8.952;2024-02-21T11:24:10;12.10;99.90
9107;DHT22;4589;48.690;8.952;2024-02-21T11:26:37;12.10;99.90
9107;DHT22;4589;48.690;8.952;2024-02-21T11:29:03;12.50;99.90
9107;DHT22;4589;48.690;8.952;2024-02-21T11:31:44;12.60;99.90
9107;DHT22;4589;48.690;8.952;2024-02-21T11:34:11;12.40;99.90
9107;DHT22;4589;48.690;8.952;2024-02-21T11:36:51;12.30;99.90
9107;DHT22;4589;48.690;8.952;2024-02-21T11:39:25;12.20;99.90
9107;DHT22;4589;48.690;8.952;2024-02-21T11:42:04;12.10;99.90
9107;DHT22;4589;48.690;8.952;2024-02-21T11:44:32;12.10;99.90
9107;DHT22;4589;48.690;8.952;2024-02-21T11:49:37;12.30;99.90
9107;DHT22;4589;48.690;8.952;2024-02-21T11:54:30;12.60;99.90
9107;DHT22;4589;48.690;8.952;2024-02-21T12:01:49;12.80;99.90
9107;DHT22;4589;48.690;8.952;2024-02-21T12:04:15;13.00;99.90
9107;DHT22;4589;48.690;8.952;2024-02-21T12:06:44;13.30;99.90
9107;DHT22;4589;48.690;8.952;2024-02-21T12:09:09;13.70;99.90
9107;DHT22;4589;48.690;8.952;2024-02-21T12:14:02;13.60;99.90
9107;DHT22;4589;48.690;8.952;2024-02-21T12:16:29;13.40;99.90
9107;DHT22;4589;48.690;8.952;2024-02-21T12:18:59;13.30;99.90
9107;DHT22;4589;48.690;8.952;2024-02-21T12:21:35;13.10;99.90
9107;DHT22;4589;48.690;8.952;2024-02-21T12:24:17;13.30;99.90
9107;DHT22;4589;48.690;8.952;2024-02-21T12:31:36;12.80;99.90
9107;DHT22;4589;48.690;8.952;2024-02-21T12:34:02;12.70;99.90
9107;DHT22;4589;48.690;8.952;2024-02-21T12:36:29;12.50;99.90
9107;DHT22;4589;48.690;8.952;2024-02-21T12:38:55;12.70;99.90
9107;DHT22;4589;48.690;8.952;2024-02-21T12:41:21;12.70;99.90
9107;DHT22;4589;48.690;8.952;2024-02-21T12:43:46;12.70;99.90
9107;DHT22;4589;48.690;8.952;2024-02-21T12:46:12;12.80;99.90
9107;DHT22;4589;48.690;8.952;2024-02-21T12:51:05;12.80;99.90
9107;DHT22;4589;48.690;8.952;2024-02-21T13:10:33;12.70;99.90
9107;DHT22;4589;48.690;8.952;2024-02-21T13:13:02;12.70;99.90
9107;DHT22;4589;48.690;8.952;2024-02-21T13:15:28;12.80;99.90
9107;DHT22;4589;48.690;8.952;2024-02-21T13:17:55;12.80;99.90
9107;DHT22;4589;48.690;8.952;2024-02-21T13:20:21;12.80;99.90
9107;DHT22;4589;48.690;8.952;2024-02-21T13:22:47;12.60;99.90
9107;DHT22;4589;48.690;8.952;2024-02-21T13:25:12;12.50;99.90
9107;DHT22;4589;48.690;8.952;2024-02-21T13:27:43;12.50;99.90
9107;DHT22;4589;48.690;8.952;2024-02-21T13:30:09;12.30;99.90
9107;DHT22;4589;48.690;8.952;2024-02-21T13:32:35;12.30;99.90
9107;DHT22;4589;48.690;8.952;2024-02-21T13:35:01;12.20;99.90
9107;DHT22;4589;48.690;8.952;2024-02-21T13:37:27;12.10;99.90
9107;DHT22;4589;48.690;8.952;2024-02-21T13:39:53;12.20;99.90
9107;DHT22;4589;48.690;8.952;2024-02-21T13:42:19;12.20;99.90
9107;DHT22;4589;48.690;8.952;2024-02-21T13:44:45;12.20;99.90
9107;DHT22;4589;48.690;8.952;2024-02-21T13:47:14;12.10;99.90
9107;DHT22;4589;48.690;8.952;2024-02-21T13:49:39;12.00;99.90
9107;DHT22;4589;48.690;8.952;2024-02-21T13:52:05;12.10;99.90
9107;DHT22;4589;48.690;8.952;2024-02-21T13:54:31;11.90;99.90
9107;DHT22;4589;48.690;8.952;2024-02-21T13:56:56;12.00;99.90
9107;DHT22;4589;48.690;8.952;2024-02-21T13:59:22;12.00;99.90
9107;DHT22;4589;48.690;8.952;2024-02-21T14:04:13;11.80;99.90
9107;DHT22;4589;48.690;8.952;2024-02-21T14:06:39;11.80;99.90
9107;DHT22;4589;48.690;8.952;2024-02-21T14:09:09;11.80;99.90
9107;DHT22;4589;48.690;8.952;2024-02-21T14:11:35;11.80;99.90
9107;DHT22;4589;48.690;8.952;2024-02-21T14:14:01;11.80;99.90
9107;DHT22;4589;48.690;8.952;2024-02-21T14:16:26;11.70;99.90
9107;DHT22;4589;48.690;8.952;2024-02-21T14:21:19;11.70;99.90
9107;DHT22;4589;48.690;8.952;2024-02-21T14:23:45;11.60;99.90
9107;DHT22;4589;48.690;8.952;2024-02-21T14:26:11;11.70;99.90
9107;DHT22;4589;48.690;8.952;2024-02-21T14:28:37;11.70;99.90
9107;DHT22;4589;48.690;8.952;2024-02-21T14:31:03;11.60;99.90
9107;DHT22;4589;48.690;8.952;2024-02-21T14:33:31;11.60;99.90
9107;DHT22;4589;48.690;8.952;2024-02-21T14:45:41;11.30;99.90
9107;DHT22;4589;48.690;8.952;2024-02-21T14:48:07;11.30;99.90
9107;DHT22;4589;48.690;8.952;2024-02-21T14:52:58;11.20;99.90
9107;DHT22;4589;48.690;8.952;2024-02-21T14:55:24;11.20;99.90
9107;DHT22;4589;48.690;8.952;2024-02-21T14:57:50;11.30;99.90
9107;DHT22;4589;48.690;8.952;2024-02-21T15:05:10;11.00;99.90
9107;DHT22;4589;48.690;8.952;2024-02-21T15:07:38;11.00;99.90
9107;DHT22;4589;48.690;8.952;2024-02-21T15:10:04;10.90;99.90
9107;DHT22;4589;48.690;8.952;2024-02-21T15:12:29;10.90;99.90
9107;DHT22;4589;48.690;8.952;2024-02-21T15:22:15;11.00;99.90
9107;DHT22;4589;48.690;8.952;2024-02-21T15:36:56;10.70;99.90
9107;DHT22;4589;48.690;8.952;2024-02-21T15:41:48;10.60;99.90
9107;DHT22;4589;48.690;8.952;2024-02-21T15:44:14;10.60;99.90
9107;DHT22;4589;48.690;8.952;2024-02-21T15:46:40;10.70;99.90
9107;DHT22;4589;48.690;8.952;2024-02-21T15:49:06;10.60;99.90
9107;DHT22;4589;48.690;8.952;2024-02-21T15:51:33;10.50;99.90
9107;DHT22;4589;48.690;8.952;2024-02-21T15:56:26;10.50;99.90
9107;DHT22;4589;48.690;8.952;2024-02-21T16:01:20;10.50;99.90
9107;DHT22;4589;48.690;8.952;2024-02-21T16:06:12;10.40;99.90
9107;DHT22;4589;48.690;8.952;2024-02-21T16:08:37;10.30;99.90
9107;DHT22;4589;48.690;8.952;2024-02-21T16:11:06;10.20;99.90
9107;DHT22;4589;48.690;8.952;2024-02-21T16:13:34;10.20;99.90
9107;DHT22;4589;48.690;8.952;2024-02-21T16:15:59;10.10;99.90
9107;DHT22;4589;48.690;8.952;2024-02-21T16:20:51;10.10;99.90
9107;DHT22;4589;48.690;8.952;2024-02-21T16:23:16;10.10;99.90
9107;DHT22;4589;48.690;8.952;2024-02-21T16:25:42;10.00;99.90
9107;DHT22;4589;48.690;8.952;2024-02-21T16:28:09;9.90;99.90
9107;DHT22;4589;48.690;8.952;2024-02-21T16:35:28;9.80;99.90
9107;DHT22;4589;48.690;8.952;2024-02-21T16:37:55;9.70;99.90
9107;DHT22;4589;48.690;8.952;2024-02-21T16:40:21;9.70;99.90
9107;DHT22;4589;48.690;8.952;2024-02-21T16:45:15;9.70;99.90
9107;DHT22;4589;48.690;8.952;2024-02-21T16:50:07;9.60;99.90
9107;DHT22;4589;48.690;8.952;2024-02-21T16:54:59;9.50;99.90
9107;DHT22;4589;48.690;8.952;2024-02-21T16:59:51;9.40;99.90
9107;DHT22;4589;48.690;8.952;2024-02-21T17:04:45;9.40;99.90
9107;DHT22;4589;48.690;8.952;2024-02-21T17:07:12;9.40;99.90
9107;DHT22;4589;48.690;8.952;2024-02-21T17:09:37;9.30;99.90
9107;DHT22;4589;48.690;8.952;2024-02-21T17:14:32;9.20;99.90
9107;DHT22;4589;48.690;8.952;2024-02-21T17:16:58;9.10;99.90
9107;DHT22;4589;48.690;8.952;2024-02-21T17:24:16;9.10;99.90
9107;DHT22;4589;48.690;8.952;2024-02-21T17:26:41;9.00;99.90
9107;DHT22;4589;48.690;8.952;2024-02-21T17:29:07;9.00;99.90
9107;DHT22;4589;48.690;8.952;2024-02-21T17:41:18;8.80;99.90
9107;DHT22;4589;48.690;8.952;2024-02-21T17:43:43;8.90;99.90
9107;DHT22;4589;48.690;8.952;2024-02-21T17:46:10;8.90;99.90
9107;DHT22;4589;48.690;8.952;2024-02-21T17:48:36;8.80;99.90
9107;DHT22;4589;48.690;8.952;2024-02-21T17:51:02;8.80;99.90
9107;DHT22;4589;48.690;8.952;2024-02-21T17:53:28;8.80;99.90
9107;DHT22;4589;48.690;8.952;2024-02-21T17:55:55;8.80;99.90
9107;DHT22;4589;48.690;8.952;2024-02-21T18:03:13;8.80;99.90
9107;DHT22;4589;48.690;8.952;2024-02-21T18:05:42;8.80;99.90
9107;DHT22;4589;48.690;8.952;2024-02-21T18:08:09;8.70;99.90
9107;DHT22;4589;48.690;8.952;2024-02-21T18:13:06;8.70;99.90
9107;DHT22;4589;48.690;8.952;2024-02-21T18:15:32;8.70;99.90
9107;DHT22;4589;48.690;8.952;2024-02-21T18:20:24;8.70;99.90
9107;DHT22;4589;48.690;8.952;2024-02-21T18:22:49;8.70;99.90
9107;DHT22;4589;48.690;8.952;2024-02-21T18:27:43;8.70;99.90
9107;DHT22;4589;48.690;8.952;2024-02-21T18:30:09;8.70;99.90
9107;DHT22;4589;48.690;8.952;2024-02-21T18:32:35;8.70;99.90
9107;DHT22;4589;48.690;8.952;2024-02-21T18:35:00;8.70;99.90
9107;DHT22;4589;48.690;8.952;2024-02-21T18:37:26;8.70;99.90
9107;DHT22;4589;48.690;8.952;2024-02-21T18:47:11;8.80;99.90
9107;DHT22;4589;48.690;8.952;2024-02-21T18:49:37;8.70;99.90
9107;DHT22;4589;48.690;8.952;2024-02-21T18:52:03;8.70;99.90
9107;DHT22;4589;48.690;8.952;2024-02-21T18:54:29;8.70;99.90
9107;DHT22;4589;48.690;8.952;2024-02-21T18:59:20;8.70;99.90
9107;DHT22;4589;48.690;8.952;2024-02-21T19:01:46;8.60;99.90
9107;DHT22;4589;48.690;8.952;2024-02-21T19:04:11;8.70;99.90
9107;DHT22;4589;48.690;8.952;2024-02-21T19:09:03;8.70;99.90
9107;DHT22;4589;48.690;8.952;2024-02-21T19:11:30;8.60;99.90
9107;DHT22;4589;48.690;8.952;2024-02-21T19:21:13;8.50;99.90
9107;DHT22;4589;48.690;8.952;2024-02-21T19:26:09;8.50;99.90
9107;DHT22;4589;48.690;8.952;2024-02-21T19:28:35;8.50;99.90
9107;DHT22;4589;48.690;8.952;2024-02-21T19:31:01;8.50;99.90
9107;DHT22;4589;48.690;8.952;2024-02-21T19:45:43;8.50;99.90
9107;DHT22;4589;48.690;8.952;2024-02-21T19:48:12;8.40;99.90
9107;DHT22;4589;48.690;8.952;2024-02-21T19:50:38;8.40;99.90
9107;DHT22;4589;48.690;8.952;2024-02-21T19:53:04;8.30;99.90
9107;DHT22;4589;48.690;8.952;2024-02-21T19:55:29;8.30;99.90
9107;DHT22;4589;48.690;8.952;2024-02-21T20:00:22;8.30;99.90
9107;DHT22;4589;48.690;8.952;2024-02-21T20:02:48;8.30;99.90
9107;DHT22;4589;48.690;8.952;2024-02-21T20:05:14;8.30;99.90
9107;DHT22;4589;48.690;8.952;2024-02-21T20:07:40;8.30;99.90
9107;DHT22;4589;48.690;8.952;2024-02-21T20:10:06;8.30;99.90
9107;DHT22;4589;48.690;8.952;2024-02-21T20:12:33;8.30;99.90
9107;DHT22;4589;48.690;8.952;2024-02-21T20:14:59;8.30;99.90
9107;DHT22;4589;48.690;8.952;2024-02-21T20:22:18;8.20;99.90
9107;DHT22;4589;48.690;8.952;2024-02-21T20:24:43;8.20;99.90
9107;DHT22;4589;48.690;8.952;2024-02-21T20:27:09;8.20;99.90
9107;DHT22;4589;48.690;8.952;2024-02-21T20:29:35;8.20;99.90
9107;DHT22;4589;48.690;8.952;2024-02-21T20:32:01;8.20;99.90
9107;DHT22;4589;48.690;8.952;2024-02-21T20:36:56;8.50;99.90
9107;DHT22;4589;48.690;8.952;2024-02-21T20:41:47;9.00;99.90
9107;DHT22;4589;48.690;8.952;2024-02-21T20:44:13;9.20;99.90
9107;DHT22;4589;48.690;8.952;2024-02-21T20:49:04;9.40;99.90
9107;DHT22;4589;48.690;8.952;2024-02-21T20:51:30;9.60;99.90
9107;DHT22;4589;48.690;8.952;2024-02-21T20:58:48;10.00;99.90
9107;DHT22;4589;48.690;8.952;2024-02-21T21:01:14;9.90;99.90
9107;DHT22;4589;48.690;8.952;2024-02-21T21:03:40;10.10;99.90
9107;DHT22;4589;48.690;8.952;2024-02-21T21:08:32;10.20;99.90
9107;DHT22;4589;48.690;8.952;2024-02-21T21:10:58;10.20;99.90
9107;DHT22;4589;48.690;8.952;2024-02-21T21:18:16;10.20;99.90
9107;DHT22;4589;48.690;8.952;2024-02-21T21:20:42;10.20;99.90
9107;DHT22;4589;48.690;8.952;2024-02-21T21:23:07;10.30;99.90